createdAt,value
2018-11-23T00:00:54.387Z,20.23
2018-11-23T00:03:23.633Z,20.20
2018-11-23T00:05:51.860Z,19.70
2018-11-23T00:08:20.044Z,20.37
2018-11-23T00:10:49.578Z,20.43
2018-11-23T00:13:18.144Z,19.77
2018-11-23T00:15:46.423Z,18.47
2018-11-23T00:18:14.652Z,21.50
2018-11-23T00:20:43.451Z,19.23
2018-11-23T00:23:11.792Z,19.73
2018-11-23T00:25:40.595Z,19.63
2018-11-23T00:28:09.451Z,20.00
2018-11-23T00:30:38.966Z,17.87
2018-11-23T00:33:07.312Z,20.03
2018-11-23T00:35:36.257Z,18.77
2018-11-23T00:38:05.593Z,18.43
2018-11-23T00:40:35.888Z,17.73
2018-11-23T00:43:04.355Z,17.00
2018-11-23T00:45:35.666Z,15.83
2018-11-23T00:48:03.467Z,15.23
2018-11-23T00:50:32.457Z,16.87
2018-11-23T00:53:01.998Z,15.20
2018-11-23T00:55:31.068Z,15.20
2018-11-23T00:57:59.359Z,16.50
2018-11-23T01:00:32.199Z,15.67
2018-11-23T01:03:01.385Z,15.40
2018-11-23T01:05:29.839Z,17.47
2018-11-23T01:07:58.319Z,17.03
2018-11-23T01:10:27.929Z,17.43
2018-11-23T01:12:56.941Z,17.07
2018-11-23T01:15:25.216Z,17.13
2018-11-23T01:17:53.965Z,18.10
2018-11-23T01:20:23.495Z,18.90
2018-11-23T01:22:52.116Z,17.43
2018-11-23T01:25:21.656Z,16.90
2018-11-23T01:27:51.049Z,17.03
2018-11-23T01:30:22.276Z,17.97
2018-11-23T01:32:50.533Z,17.00
2018-11-23T01:35:18.741Z,16.60
2018-11-23T01:37:46.922Z,16.03
2018-11-23T01:40:16.748Z,15.43
2018-11-23T01:42:45.283Z,16.50
2018-11-23T01:45:13.976Z,16.07
2018-11-23T01:47:42.154Z,16.07
2018-11-23T01:50:13.616Z,17.77
2018-11-23T01:52:42.081Z,18.80
2018-11-23T01:55:11.368Z,16.57
2018-11-23T01:57:40.368Z,17.00
2018-11-23T02:00:13.347Z,16.80
2018-11-23T02:02:41.628Z,15.70
2018-11-23T02:05:10.244Z,16.50
2018-11-23T02:07:39.004Z,16.83
2018-11-23T02:10:08.026Z,15.00
2018-11-23T02:12:36.484Z,15.20
2018-11-23T02:15:05.338Z,14.27
2018-11-23T02:17:33.532Z,15.13
2018-11-23T02:20:01.737Z,15.47
2018-11-23T02:22:29.927Z,14.87
2018-11-23T02:24:58.189Z,15.97
2018-11-23T02:27:26.381Z,16.10
2018-11-23T02:29:54.591Z,17.33
2018-11-23T02:32:22.809Z,14.47
2018-11-23T02:34:51.000Z,15.37
2018-11-23T02:37:19.192Z,16.13
2018-11-23T02:39:47.421Z,15.13
2018-11-23T02:42:15.639Z,14.90
2018-11-23T02:44:43.828Z,14.30
2018-11-23T02:47:12.006Z,13.88
2018-11-23T02:49:40.213Z,15.33
2018-11-23T02:52:08.413Z,16.27
2018-11-23T02:54:36.635Z,17.43
2018-11-23T02:57:05.473Z,16.87
2018-11-23T02:59:33.698Z,16.60
2018-11-23T03:02:01.943Z,18.07
2018-11-23T03:04:30.191Z,16.97
2018-11-23T03:06:58.349Z,17.77
2018-11-23T03:09:26.532Z,17.10
2018-11-23T03:11:54.725Z,17.30
2018-11-23T03:14:22.949Z,16.20
2018-11-23T03:16:51.139Z,16.70
2018-11-23T03:19:19.336Z,17.93
2018-11-23T03:21:47.588Z,16.00
2018-11-23T03:24:15.768Z,16.97
2018-11-23T03:26:44.044Z,15.63
2018-11-23T03:29:12.232Z,16.27
2018-11-23T03:31:40.437Z,16.70
2018-11-23T03:34:08.666Z,16.70
2018-11-23T03:36:36.932Z,16.63
2018-11-23T03:39:07.929Z,16.97
2018-11-23T03:41:36.133Z,16.10
2018-11-23T03:44:05.132Z,14.47
2018-11-23T03:46:34.270Z,15.00
2018-11-23T03:49:03.852Z,14.63
2018-11-23T03:51:32.102Z,14.70
2018-11-23T03:54:00.435Z,15.87
2018-11-23T03:56:28.720Z,15.17
2018-11-23T03:58:57.353Z,16.90
2018-11-23T04:01:25.660Z,16.80
2018-11-23T04:03:53.911Z,15.23
2018-11-23T04:06:22.092Z,17.23
2018-11-23T04:08:50.587Z,16.23
2018-11-23T04:11:18.857Z,15.40
2018-11-23T04:13:49.015Z,16.13
2018-11-23T04:16:17.253Z,16.73
2018-11-23T04:18:47.578Z,14.93
2018-11-23T04:21:18.775Z,16.37
2018-11-23T04:23:48.688Z,14.67
2018-11-23T04:26:24.629Z,13.80
2018-11-23T04:28:48.445Z,14.03
2018-11-23T04:31:16.970Z,13.47
2018-11-23T04:33:46.803Z,15.03
2018-11-23T04:36:15.108Z,14.47
2018-11-23T04:38:43.348Z,14.37
2018-11-23T04:41:11.520Z,12.60
2018-11-23T04:43:39.700Z,13.90
2018-11-23T04:46:07.908Z,12.70
2018-11-23T04:48:36.203Z,14.27
2018-11-23T04:51:05.544Z,14.07
2018-11-23T04:53:35.064Z,14.67
2018-11-23T04:56:05.031Z,13.47
2018-11-23T04:58:34.723Z,14.37
2018-11-23T05:01:05.194Z,15.60
2018-11-23T05:03:34.973Z,13.70
2018-11-23T05:06:04.860Z,14.20
2018-11-23T05:08:34.749Z,13.97
2018-11-23T05:11:04.744Z,13.83
2018-11-23T05:13:32.942Z,14.77
2018-11-23T05:16:01.165Z,12.63
2018-11-23T05:18:29.357Z,14.60
2018-11-23T05:20:57.896Z,14.43
2018-11-23T05:23:26.183Z,13.50
2018-11-23T05:25:54.377Z,12.20
2018-11-23T05:28:22.563Z,13.93
2018-11-23T05:30:50.752Z,15.37
2018-11-23T05:33:19.268Z,12.73
2018-11-23T05:35:47.456Z,14.37
2018-11-23T05:38:15.666Z,13.87
2018-11-23T05:40:43.915Z,13.53
2018-11-23T05:43:12.088Z,13.90
2018-11-23T05:45:40.272Z,12.53
2018-11-23T05:48:08.494Z,13.77
2018-11-23T05:50:36.705Z,13.77
2018-11-23T05:53:04.904Z,13.80
2018-11-23T05:55:33.099Z,13.83
2018-11-23T05:58:01.328Z,13.27
2018-11-23T06:00:30.825Z,14.03
2018-11-23T06:02:59.210Z,14.90
2018-11-23T06:05:27.432Z,14.53
2018-11-23T06:07:55.633Z,17.00
2018-11-23T06:10:24.125Z,15.83
2018-11-23T06:12:52.337Z,15.33
2018-11-23T06:15:22.027Z,15.53
2018-11-23T06:17:50.592Z,13.73
2018-11-23T06:20:22.464Z,14.93
2018-11-23T06:22:51.525Z,17.43
2018-11-23T06:25:45.335Z,17.80
2018-11-23T06:28:13.521Z,15.57
2018-11-23T06:30:41.716Z,14.73
2018-11-23T06:33:21.276Z,15.70
2018-11-23T06:35:49.457Z,16.43
2018-11-23T06:38:17.627Z,15.07
2018-11-23T06:40:45.816Z,15.27
2018-11-23T06:43:13.998Z,15.30
2018-11-23T06:45:43.556Z,14.83
2018-11-23T06:48:12.079Z,17.33
2018-11-23T06:50:40.367Z,16.60
2018-11-23T06:53:08.847Z,14.87
2018-11-23T06:55:37.034Z,13.27
2018-11-23T06:58:05.519Z,16.23
2018-11-23T07:00:33.714Z,15.17
2018-11-23T07:03:02.039Z,13.53
2018-11-23T07:05:30.204Z,13.00
2018-11-23T07:07:59.309Z,14.50
2018-11-23T07:10:27.476Z,13.40
2018-11-23T07:12:55.702Z,15.17
2018-11-23T07:15:23.968Z,16.67
2018-11-23T07:17:52.241Z,15.97
2018-11-23T07:20:20.448Z,18.03
2018-11-23T07:22:49.393Z,17.20
2018-11-23T07:25:17.665Z,20.60
2018-11-23T07:27:45.841Z,14.60
2018-11-23T07:30:17.964Z,14.37
2018-11-23T07:32:46.375Z,15.07
2018-11-23T07:35:15.253Z,16.03
2018-11-23T07:37:43.439Z,15.07
2018-11-23T07:40:24.755Z,14.20
2018-11-23T07:42:54.012Z,14.33
2018-11-23T07:45:22.178Z,12.97
2018-11-23T07:47:50.362Z,15.40
2018-11-23T07:50:19.337Z,15.93
2018-11-23T07:52:47.557Z,17.70
2018-11-23T07:55:15.747Z,17.50
2018-11-23T07:57:43.961Z,17.83
2018-11-23T08:00:14.885Z,19.23
2018-11-23T08:02:43.602Z,17.10
2018-11-23T08:05:14.595Z,17.30
2018-11-23T08:07:42.789Z,16.87
2018-11-23T08:10:11.323Z,16.43
2018-11-23T08:12:40.995Z,17.73
2018-11-23T08:15:15.325Z,20.77
2018-11-23T08:17:43.547Z,19.20
2018-11-23T08:20:13.710Z,19.90
2018-11-23T08:22:42.084Z,19.27
2018-11-23T08:25:11.513Z,17.53
2018-11-23T08:27:40.277Z,17.57
2018-11-23T08:30:14.040Z,19.53
2018-11-23T08:32:42.231Z,18.57
2018-11-23T08:35:10.630Z,17.40
2018-11-23T08:37:40.266Z,17.87
2018-11-23T08:40:18.241Z,16.80
2018-11-23T08:42:47.375Z,18.90
2018-11-23T08:45:18.887Z,16.87
2018-11-23T08:47:47.167Z,16.43
2018-11-23T08:50:17.965Z,17.00
2018-11-23T08:52:46.196Z,18.03
2018-11-23T08:55:15.168Z,16.70
2018-11-23T08:57:43.600Z,16.97
2018-11-23T09:00:19.793Z,16.97
2018-11-23T09:02:49.219Z,15.70
2018-11-23T09:05:18.100Z,16.53
2018-11-23T09:07:47.288Z,16.10
2018-11-23T09:10:17.556Z,15.47
2018-11-23T09:12:47.671Z,15.03
2018-11-23T09:15:16.217Z,17.60
2018-11-23T09:17:45.716Z,18.17
2018-11-23T09:20:14.612Z,17.63
2018-11-23T09:22:42.875Z,15.97
2018-11-23T09:25:14.580Z,16.17
2018-11-23T09:27:42.761Z,17.27
2018-11-23T09:30:14.701Z,17.20
2018-11-23T09:32:43.266Z,15.93
2018-11-23T09:35:11.440Z,15.50
2018-11-23T09:37:40.457Z,16.27
2018-11-23T09:40:10.871Z,18.70
2018-11-23T09:42:39.546Z,16.90
2018-11-23T09:45:09.657Z,16.10
2018-11-23T09:47:37.938Z,16.50
2018-11-23T09:50:08.577Z,15.40
2018-11-23T09:52:38.384Z,16.70
2018-11-23T09:55:07.069Z,16.23
2018-11-23T09:57:35.231Z,15.83
2018-11-23T10:00:03.468Z,16.20
2018-11-23T10:02:31.670Z,16.60
2018-11-23T10:04:59.862Z,17.43
2018-11-23T10:07:28.118Z,18.23
2018-11-23T10:09:56.282Z,16.70
2018-11-23T10:12:24.461Z,17.53
2018-11-23T10:14:52.788Z,16.63
2018-11-23T10:17:20.967Z,16.03
2018-11-23T10:19:49.168Z,15.97
2018-11-23T10:22:17.368Z,16.47
2018-11-23T10:24:45.564Z,15.70
2018-11-23T10:27:13.777Z,16.07
2018-11-23T10:29:42.013Z,16.33
2018-11-23T10:32:10.210Z,16.87
2018-11-23T10:34:38.378Z,16.83
2018-11-23T10:37:06.610Z,16.13
2018-11-23T10:39:34.797Z,17.20
2018-11-23T10:42:02.961Z,16.27
2018-11-23T10:44:31.182Z,16.67
2018-11-23T10:46:59.371Z,15.90
2018-11-23T10:49:27.560Z,16.53
2018-11-23T10:51:55.757Z,16.93
2018-11-23T10:54:23.936Z,15.83
2018-11-23T10:56:52.108Z,15.53
2018-11-23T10:59:20.426Z,16.83
2018-11-23T11:01:53.978Z,14.70
2018-11-23T11:04:28.304Z,15.27
2018-11-23T11:07:00.771Z,15.80
2018-11-23T11:09:29.076Z,14.60
2018-11-23T11:11:57.245Z,16.40
2018-11-23T11:14:25.417Z,14.70
2018-11-23T11:16:53.626Z,15.07
2018-11-23T11:19:21.796Z,15.27
2018-11-23T11:21:50.025Z,15.33
2018-11-23T11:24:18.249Z,14.63
2018-11-23T11:26:46.440Z,15.30
2018-11-23T11:29:14.642Z,14.67
2018-11-23T11:31:43.111Z,13.77
2018-11-23T11:34:11.297Z,15.37
2018-11-23T11:36:39.444Z,14.63
2018-11-23T11:39:10.478Z,16.33
2018-11-23T11:41:38.706Z,17.00
2018-11-23T11:44:06.906Z,16.93
2018-11-23T11:46:35.952Z,15.17
2018-11-23T11:49:04.245Z,14.57
2018-11-23T11:51:32.399Z,15.17
2018-11-23T11:54:00.623Z,14.98
2018-11-23T11:56:28.805Z,14.80
2018-11-23T11:58:56.983Z,15.07
2018-11-23T12:01:26.336Z,15.47
2018-11-23T12:03:55.035Z,13.63
2018-11-23T12:06:23.244Z,14.23
2018-11-23T12:08:52.902Z,14.37
2018-11-23T12:11:21.142Z,14.93
2018-11-23T12:13:49.365Z,13.97
2018-11-23T12:16:17.619Z,13.40
2018-11-23T12:18:45.819Z,14.77
2018-11-23T12:21:14.025Z,13.80
2018-11-23T12:23:42.189Z,12.93
2018-11-23T12:26:10.357Z,13.68
2018-11-23T12:28:38.560Z,13.97
2018-11-23T12:31:06.776Z,14.67
2018-11-23T12:33:34.947Z,12.77
2018-11-23T12:36:03.162Z,14.70
2018-11-23T12:38:31.345Z,14.60
2018-11-23T12:40:59.521Z,14.37
2018-11-23T12:43:27.704Z,13.88
2018-11-23T12:45:55.905Z,14.33
2018-11-23T12:48:24.091Z,14.03
2018-11-23T12:50:52.286Z,13.13
2018-11-23T12:53:20.464Z,13.98
2018-11-23T12:55:48.629Z,13.05
2018-11-23T12:58:16.848Z,13.88
2018-11-23T13:00:45.016Z,15.00
2018-11-23T13:03:13.207Z,14.23
2018-11-23T13:05:41.396Z,13.97
2018-11-23T13:08:09.575Z,13.78
2018-11-23T13:10:37.959Z,14.20
2018-11-23T13:13:06.134Z,14.00
2018-11-23T13:15:34.317Z,13.30
2018-11-23T13:18:03.288Z,14.80
2018-11-23T13:20:31.448Z,12.87
2018-11-23T13:22:59.645Z,14.13
2018-11-23T13:25:30.046Z,13.53
2018-11-23T13:27:58.335Z,13.97
2018-11-23T13:30:29.993Z,13.93
2018-11-23T13:32:58.226Z,13.30
2018-11-23T13:35:26.416Z,14.50
2018-11-23T13:37:54.632Z,15.13
2018-11-23T13:40:24.149Z,14.93
2018-11-23T13:42:53.069Z,13.37
2018-11-23T13:45:22.520Z,13.47
2018-11-23T13:47:50.760Z,13.33
2018-11-23T13:50:20.186Z,15.25
2018-11-23T13:52:49.175Z,14.17
2018-11-23T13:55:17.381Z,14.23
2018-11-23T13:57:45.572Z,14.40
2018-11-23T14:00:16.156Z,14.27
2018-11-23T14:02:44.877Z,14.13
2018-11-23T14:05:15.367Z,13.13
2018-11-23T14:07:44.470Z,13.33
2018-11-23T14:10:14.603Z,13.67
2018-11-23T14:12:43.682Z,13.97
2018-11-23T14:15:14.359Z,15.10
2018-11-23T14:17:43.783Z,13.97
2018-11-23T14:20:13.118Z,13.40
2018-11-23T14:22:41.277Z,14.53
2018-11-23T14:25:11.441Z,14.63
2018-11-23T14:27:39.708Z,15.72
2018-11-23T14:30:12.272Z,19.40
2018-11-23T14:32:40.745Z,14.43
2018-11-23T14:35:10.867Z,13.67
2018-11-23T14:37:39.597Z,14.57
2018-11-23T14:40:08.847Z,13.53
2018-11-23T14:42:37.012Z,13.80
2018-11-23T14:45:08.040Z,12.03
2018-11-23T14:47:36.212Z,13.57
2018-11-23T14:50:04.748Z,13.63
2018-11-23T14:52:33.004Z,13.67
2018-11-23T14:55:01.205Z,14.70
2018-11-23T14:57:29.389Z,15.07
2018-11-23T14:59:57.573Z,13.67
2018-11-23T15:02:25.794Z,15.93
2018-11-23T15:04:53.967Z,15.00
2018-11-23T15:07:22.140Z,14.30
2018-11-23T15:09:50.339Z,13.83
2018-11-23T15:12:18.521Z,14.30
2018-11-23T15:14:46.808Z,14.97
2018-11-23T15:17:15.032Z,14.07
2018-11-23T15:19:43.201Z,13.20
2018-11-23T15:22:11.372Z,17.60
2018-11-23T15:24:39.550Z,14.83
2018-11-23T15:27:07.720Z,13.73
2018-11-23T15:29:36.702Z,12.27
2018-11-23T15:32:04.892Z,14.37
2018-11-23T15:34:33.067Z,13.33
2018-11-23T15:37:01.629Z,13.73
2018-11-23T15:39:29.822Z,11.73
2018-11-23T15:41:57.995Z,13.30
2018-11-23T15:44:26.196Z,13.13
2018-11-23T15:46:54.383Z,12.87
2018-11-23T15:49:22.592Z,13.00
2018-11-23T15:51:50.795Z,13.47
2018-11-23T15:54:18.977Z,12.70
2018-11-23T15:56:47.169Z,10.83
2018-11-23T15:59:15.361Z,11.77
2018-11-23T16:01:43.780Z,12.03
2018-11-23T16:04:13.069Z,10.87
2018-11-23T16:06:41.236Z,12.70
2018-11-23T16:09:11.939Z,10.93
2018-11-23T16:11:40.170Z,11.47
2018-11-23T16:14:08.370Z,11.80
2018-11-23T16:16:36.712Z,12.40
2018-11-23T16:19:04.921Z,13.93
2018-11-23T16:21:33.107Z,14.73
2018-11-23T16:24:01.305Z,14.50
2018-11-23T16:26:29.505Z,14.57
2018-11-23T16:28:57.688Z,12.67
2018-11-23T16:31:25.897Z,13.30
2018-11-23T16:33:54.110Z,12.80
2018-11-23T16:36:22.291Z,13.87
2018-11-23T16:38:50.496Z,13.20
2018-11-23T16:41:18.683Z,12.07
2018-11-23T16:43:46.984Z,11.50
2018-11-23T16:46:16.017Z,10.73
2018-11-23T16:48:44.204Z,12.47
2018-11-23T16:51:12.496Z,11.93
2018-11-23T16:53:41.553Z,12.20
2018-11-23T16:56:09.732Z,11.97
2018-11-23T16:58:37.976Z,10.93
2018-11-23T17:01:08.034Z,10.87
2018-11-23T17:03:36.313Z,11.20
2018-11-23T17:06:04.625Z,14.90
2018-11-23T17:08:39.444Z,13.20
2018-11-23T17:11:01.017Z,12.93
2018-11-23T17:13:29.359Z,15.30
2018-11-23T17:15:57.688Z,20.07
2018-11-23T17:18:25.868Z,17.13
2018-11-23T17:20:54.093Z,40.03
2018-11-23T17:23:22.292Z,13.60
2018-11-23T17:25:50.486Z,14.10
2018-11-23T17:28:18.678Z,15.37
2018-11-23T17:30:46.950Z,17.13
2018-11-23T17:33:15.255Z,19.30
2018-11-23T17:35:43.511Z,19.50
2018-11-23T17:38:11.696Z,16.23
2018-11-23T17:40:40.844Z,16.03
2018-11-23T17:43:09.462Z,30.83
2018-11-23T17:45:38.249Z,28.10
2018-11-23T17:48:06.839Z,19.53
2018-11-23T17:50:36.243Z,16.63
2018-11-23T17:53:04.735Z,12.80
2018-11-23T17:55:32.964Z,11.23
2018-11-23T17:58:01.884Z,11.47
2018-11-23T18:00:38.844Z,12.13
2018-11-23T18:03:01.485Z,12.53
2018-11-23T18:05:30.618Z,13.60
2018-11-23T18:07:59.156Z,12.73
2018-11-23T18:10:28.763Z,13.57
2018-11-23T18:12:58.467Z,17.03
2018-11-23T18:15:27.878Z,14.33
2018-11-23T18:17:58.423Z,14.20
2018-11-23T18:20:27.519Z,13.47
2018-11-23T18:23:01.234Z,13.40
2018-11-23T18:25:32.673Z,14.70
2018-11-23T18:28:02.163Z,14.80
2018-11-23T18:30:34.719Z,15.93
2018-11-23T18:33:05.576Z,15.93
2018-11-23T18:35:34.036Z,16.20
2018-11-23T18:38:02.255Z,13.47
2018-11-23T18:40:36.975Z,11.43
2018-11-23T18:42:58.651Z,15.10
2018-11-23T18:45:26.838Z,14.37
2018-11-23T18:47:55.028Z,14.43
2018-11-23T18:50:23.222Z,14.27
2018-11-23T18:52:51.416Z,14.67
2018-11-23T18:55:19.636Z,13.67
2018-11-23T18:57:47.870Z,16.30
2018-11-23T19:00:18.152Z,16.97
2018-11-23T19:02:49.082Z,15.20
2018-11-23T19:05:19.327Z,13.43
2018-11-23T19:07:48.550Z,14.27
2018-11-23T19:10:18.249Z,14.47
2018-11-23T19:12:48.042Z,19.37
2018-11-23T19:15:25.302Z,25.37
2018-11-23T19:17:48.309Z,17.33
2018-11-23T19:20:21.063Z,27.83
2018-11-23T19:22:52.232Z,21.33
2018-11-23T19:25:20.420Z,13.60
2018-11-23T19:27:50.172Z,13.70
2018-11-23T19:30:23.524Z,14.00
2018-11-23T19:32:50.309Z,12.77
2018-11-23T19:35:18.542Z,13.20
2018-11-23T19:37:48.308Z,10.87
2018-11-23T19:40:19.481Z,12.33
2018-11-23T19:42:50.521Z,14.70
2018-11-23T19:45:22.085Z,14.37
2018-11-23T19:47:51.835Z,16.20
2018-11-23T19:50:21.623Z,18.17
2018-11-23T19:52:51.539Z,18.97
2018-11-23T19:55:19.747Z,18.00
2018-11-23T19:57:47.935Z,16.93
2018-11-23T20:00:18.436Z,15.60
2018-11-23T20:02:46.631Z,16.33
2018-11-23T20:05:14.805Z,19.33
2018-11-23T20:07:43.319Z,15.50
2018-11-23T20:10:13.897Z,20.23
2018-11-23T20:12:42.289Z,17.47
2018-11-23T20:15:14.907Z,18.87
2018-11-23T20:17:44.033Z,16.13
2018-11-23T20:20:13.582Z,18.60
2018-11-23T20:22:41.801Z,16.70
2018-11-23T20:25:13.573Z,15.40
2018-11-23T20:27:41.960Z,12.53
2018-11-23T20:30:12.409Z,9.33
2018-11-23T20:32:40.629Z,11.47
2018-11-23T20:35:11.261Z,12.87
2018-11-23T20:37:39.479Z,12.70
2018-11-23T20:40:10.748Z,12.60
2018-11-23T20:42:39.020Z,11.63
2018-11-23T20:45:09.854Z,12.50
2018-11-23T20:47:38.055Z,12.07
2018-11-23T20:50:10.518Z,11.37
2018-11-23T20:52:39.064Z,13.03
2018-11-23T20:55:10.860Z,12.83
2018-11-23T20:57:39.189Z,16.53
2018-11-23T21:00:13.759Z,12.20
2018-11-23T21:02:42.047Z,11.40
2018-11-23T21:05:11.435Z,12.73
2018-11-23T21:07:39.724Z,15.10
2018-11-23T21:10:19.629Z,11.50
2018-11-23T21:12:40.220Z,13.60
2018-11-23T21:15:18.673Z,13.17
2018-11-23T21:17:46.888Z,14.33
2018-11-23T21:20:15.095Z,12.90
2018-11-23T21:22:43.382Z,12.55
2018-11-23T21:25:11.676Z,13.17
2018-11-23T21:27:40.456Z,14.43
2018-11-23T21:30:12.408Z,18.37
2018-11-23T21:32:40.712Z,12.17
2018-11-23T21:35:11.020Z,11.87
2018-11-23T21:37:39.237Z,12.20
2018-11-23T21:40:09.000Z,11.73
2018-11-23T21:42:37.192Z,12.63
2018-11-23T21:45:07.347Z,16.03
2018-11-23T21:47:35.570Z,12.10
2018-11-23T21:50:03.805Z,18.53
2018-11-23T21:52:31.997Z,28.57
2018-11-23T21:55:00.243Z,24.03
2018-11-23T21:57:28.456Z,22.97
2018-11-23T21:59:56.660Z,24.27
2018-11-23T22:02:24.876Z,31.37
2018-11-23T22:05:05.143Z,18.30
2018-11-23T22:07:34.696Z,22.47
2018-11-23T22:10:03.156Z,20.80
2018-11-23T22:12:31.344Z,20.50
2018-11-23T22:14:59.508Z,17.40
2018-11-23T22:17:27.708Z,15.70
2018-11-23T22:19:55.902Z,14.27
2018-11-23T22:22:24.123Z,14.43
2018-11-23T22:24:52.358Z,16.67
2018-11-23T22:27:20.563Z,12.63
2018-11-23T22:29:48.782Z,13.33
2018-11-23T22:32:16.988Z,14.90
2018-11-23T22:34:45.176Z,13.40
2018-11-23T22:37:13.539Z,11.87
2018-11-23T22:39:41.724Z,12.87
2018-11-23T22:42:09.916Z,15.10
2018-11-23T22:44:38.588Z,13.27
2018-11-23T22:47:06.764Z,11.40
2018-11-23T22:49:36.131Z,11.53
2018-11-23T22:52:06.667Z,13.00
2018-11-23T22:54:37.690Z,12.73
2018-11-23T22:57:11.768Z,10.63
2018-11-23T22:59:37.756Z,10.13
2018-11-23T23:02:06.958Z,10.50
2018-11-23T23:04:36.286Z,10.60
2018-11-23T23:07:05.856Z,10.03
2018-11-23T23:09:36.872Z,13.03
2018-11-23T23:12:06.522Z,11.33
2018-11-23T23:14:37.705Z,11.40
2018-11-23T23:17:08.142Z,17.70
2018-11-23T23:19:38.163Z,11.53
2018-11-23T23:22:06.396Z,11.17
2018-11-23T23:24:34.616Z,11.67
2018-11-23T23:27:02.799Z,11.77
2018-11-23T23:29:30.971Z,10.20
2018-11-23T23:32:00.266Z,12.17
2018-11-23T23:34:29.516Z,11.23
2018-11-23T23:36:59.248Z,10.13
2018-11-23T23:39:29.354Z,9.83
2018-11-23T23:41:57.577Z,10.80
2018-11-23T23:44:25.787Z,9.57
2018-11-23T23:46:53.971Z,9.37
2018-11-23T23:49:22.158Z,9.90
2018-11-23T23:51:50.402Z,10.00
2018-11-23T23:54:18.592Z,9.83
2018-11-23T23:56:48.856Z,9.93
2018-11-23T23:59:18.309Z,10.60
